createdAt,value
2018-07-11T00:01:39.387Z,13.72
2018-07-11T00:04:07.734Z,13.71
2018-07-11T00:06:36.077Z,13.72
2018-07-11T00:09:04.841Z,13.71
2018-07-11T00:11:33.272Z,13.70
2018-07-11T00:14:01.617Z,13.64
2018-07-11T00:16:30.021Z,13.62
2018-07-11T00:18:58.387Z,13.63
2018-07-11T00:21:26.745Z,13.62
2018-07-11T00:23:55.066Z,13.62
2018-07-11T00:26:23.969Z,13.56
2018-07-11T00:28:52.376Z,13.56
2018-07-11T00:31:20.732Z,13.59
2018-07-11T00:33:49.199Z,13.57
2018-07-11T00:36:17.537Z,13.56
2018-07-11T00:38:47.012Z,13.53
2018-07-11T00:41:15.387Z,13.51
2018-07-11T00:43:43.749Z,13.44
2018-07-11T00:46:12.428Z,13.39
2018-07-11T00:48:40.780Z,13.37
2018-07-11T00:51:09.113Z,13.35
2018-07-11T00:53:37.948Z,13.33
2018-07-11T00:56:06.307Z,13.30
2018-07-11T00:58:38.587Z,13.25
2018-07-11T01:01:16.917Z,13.21
2018-07-11T01:03:54.561Z,13.20
2018-07-11T01:06:22.948Z,13.22
2018-07-11T01:08:59.312Z,13.28
2018-07-11T01:11:32.489Z,13.34
2018-07-11T01:14:00.885Z,13.37
2018-07-11T01:16:29.922Z,13.40
2018-07-11T01:19:02.335Z,13.39
2018-07-11T01:21:31.432Z,13.40
2018-07-11T01:23:59.773Z,13.45
2018-07-11T01:26:29.504Z,13.48
2018-07-11T01:28:57.917Z,13.52
2018-07-11T01:31:26.600Z,13.53
2018-07-11T01:33:55.599Z,13.56
2018-07-11T01:36:24.266Z,13.57
2018-07-11T01:38:52.716Z,13.57
2018-07-11T01:41:21.098Z,13.57
2018-07-11T01:43:49.576Z,13.59
2018-07-11T01:46:27.528Z,13.61
2018-07-11T01:48:55.944Z,13.62
2018-07-11T01:51:34.396Z,13.64
2018-07-11T01:54:02.759Z,13.70
2018-07-11T01:56:31.122Z,13.68
2018-07-11T01:58:59.472Z,13.70
2018-07-11T02:01:27.854Z,13.72
2018-07-11T02:03:56.231Z,13.73
2018-07-11T02:06:24.609Z,13.73
2018-07-11T02:08:53.003Z,13.71
2018-07-11T02:11:21.381Z,13.69
2018-07-11T02:13:49.989Z,13.71
2018-07-11T02:16:18.377Z,13.74
2018-07-11T02:18:46.734Z,13.73
2018-07-11T02:21:15.145Z,13.72
2018-07-11T02:23:43.554Z,13.74
2018-07-11T02:26:11.933Z,13.78
2018-07-11T02:28:40.311Z,13.76
2018-07-11T02:31:08.676Z,13.74
2018-07-11T02:33:37.056Z,13.74
2018-07-11T02:36:05.428Z,13.75
2018-07-11T02:38:33.796Z,13.72
2018-07-11T02:41:02.209Z,13.71
2018-07-11T02:43:30.558Z,13.69
2018-07-11T02:45:59.004Z,13.69
2018-07-11T02:48:27.375Z,13.70
2018-07-11T02:50:55.728Z,13.69
2018-07-11T02:53:24.900Z,13.73
2018-07-11T02:55:53.857Z,13.73
2018-07-11T02:58:22.213Z,13.76
2018-07-11T03:00:51.047Z,13.78
2018-07-11T03:03:19.442Z,13.79
2018-07-11T03:05:48.094Z,13.79
2018-07-11T03:08:17.456Z,13.78
2018-07-11T03:10:46.106Z,13.79
2018-07-11T03:13:14.670Z,13.74
2018-07-11T03:15:43.046Z,13.68
2018-07-11T03:18:11.499Z,13.66
2018-07-11T03:20:39.901Z,13.63
2018-07-11T03:23:08.359Z,13.59
2018-07-11T03:25:36.732Z,13.54
2018-07-11T03:28:05.110Z,13.48
2018-07-11T03:30:33.497Z,13.42
2018-07-11T03:33:01.989Z,13.35
2018-07-11T03:35:30.963Z,13.32
2018-07-11T03:37:59.321Z,13.31
2018-07-11T03:40:27.688Z,13.32
2018-07-11T03:42:56.025Z,13.29
2018-07-11T03:45:24.495Z,13.26
2018-07-11T03:47:52.936Z,13.23
2018-07-11T03:50:21.379Z,13.21
2018-07-11T03:52:49.784Z,13.22
2018-07-11T03:55:18.172Z,13.23
2018-07-11T03:57:46.532Z,13.22
2018-07-11T04:00:14.894Z,13.20
2018-07-11T04:02:43.237Z,13.17
2018-07-11T04:05:11.594Z,13.15
2018-07-11T04:07:39.926Z,13.12
2018-07-11T04:10:08.270Z,13.10
2018-07-11T04:12:36.654Z,13.09
2018-07-11T04:15:05.007Z,13.21
2018-07-11T04:17:33.332Z,13.52
2018-07-11T04:20:01.662Z,14.09
2018-07-11T04:22:30.033Z,14.81
2018-07-11T04:24:58.437Z,15.50
2018-07-11T04:27:26.822Z,16.18
2018-07-11T04:29:55.208Z,16.84
2018-07-11T04:32:23.617Z,17.47
2018-07-11T04:34:52.061Z,17.96
2018-07-11T04:37:20.394Z,18.40
2018-07-11T04:39:49.240Z,18.86
2018-07-11T04:42:17.610Z,19.37
2018-07-11T04:44:45.954Z,19.84
2018-07-11T04:47:14.310Z,20.19
2018-07-11T04:49:45.702Z,20.58
2018-07-11T04:52:14.102Z,20.95
2018-07-11T04:54:42.460Z,21.30
2018-07-11T04:57:10.845Z,21.60
2018-07-11T04:59:39.216Z,21.82
2018-07-11T05:02:07.770Z,22.06
2018-07-11T05:04:36.118Z,22.23
2018-07-11T05:07:04.482Z,22.42
2018-07-11T05:09:32.820Z,22.60
2018-07-11T05:12:01.171Z,22.42
2018-07-11T05:14:29.515Z,22.15
2018-07-11T05:16:57.848Z,21.77
2018-07-11T05:19:26.196Z,21.66
2018-07-11T05:21:54.535Z,21.77
2018-07-11T05:24:23.037Z,21.88
2018-07-11T05:26:51.519Z,21.93
2018-07-11T05:29:19.873Z,22.06
2018-07-11T05:31:48.244Z,22.30
2018-07-11T05:34:16.605Z,22.72
2018-07-11T05:36:44.982Z,23.28
2018-07-11T05:39:13.353Z,23.75
2018-07-11T05:41:41.676Z,23.88
2018-07-11T05:44:10.007Z,23.93
2018-07-11T05:46:38.381Z,23.85
2018-07-11T05:49:06.835Z,23.88
2018-07-11T05:51:35.217Z,23.96
2018-07-11T05:54:03.594Z,23.96
2018-07-11T05:56:31.966Z,23.97
2018-07-11T05:59:00.345Z,23.90
2018-07-11T06:01:28.721Z,23.79
2018-07-11T06:03:57.087Z,23.64
2018-07-11T06:06:25.662Z,23.26
2018-07-11T06:08:54.013Z,22.86
2018-07-11T06:11:23.464Z,22.58
2018-07-11T06:13:52.980Z,22.42
2018-07-11T06:16:21.601Z,22.26
2018-07-11T06:18:50.270Z,21.99
2018-07-11T06:21:18.924Z,21.62
2018-07-11T06:23:47.278Z,21.09
2018-07-11T06:26:15.652Z,20.62
2018-07-11T06:28:43.981Z,20.34
2018-07-11T06:31:12.326Z,20.31
2018-07-11T06:33:40.694Z,20.36
2018-07-11T06:36:09.216Z,20.39
2018-07-11T06:38:38.208Z,20.67
2018-07-11T06:41:06.620Z,20.98
2018-07-11T06:43:34.980Z,21.14
2018-07-11T06:46:03.357Z,21.29
2018-07-11T06:48:31.714Z,21.52
2018-07-11T06:51:00.186Z,21.55
2018-07-11T06:53:28.599Z,21.27
2018-07-11T06:55:57.018Z,20.95
2018-07-11T06:58:25.401Z,20.62
2018-07-11T07:00:53.762Z,20.45
2018-07-11T07:03:22.112Z,20.36
2018-07-11T07:05:50.633Z,20.38
2018-07-11T07:08:18.971Z,20.27
2018-07-11T07:10:47.331Z,20.28
2018-07-11T07:13:15.712Z,20.33
2018-07-11T07:15:44.236Z,20.37
2018-07-11T07:18:12.662Z,20.65
2018-07-11T07:20:41.000Z,20.94
2018-07-11T07:23:09.580Z,21.09
2018-07-11T07:25:38.779Z,21.05
2018-07-11T07:28:07.140Z,20.91
2018-07-11T07:30:35.564Z,20.80
2018-07-11T07:33:03.917Z,20.73
2018-07-11T07:35:32.301Z,20.72
2018-07-11T07:38:00.649Z,20.58
2018-07-11T07:40:29.021Z,20.53
2018-07-11T07:42:57.412Z,20.49
2018-07-11T07:45:26.325Z,20.48
2018-07-11T07:47:54.715Z,20.39
2018-07-11T07:50:23.117Z,20.33
2018-07-11T07:52:51.920Z,20.27
2018-07-11T07:55:20.374Z,20.04
2018-07-11T07:57:48.772Z,19.95
2018-07-11T08:00:17.138Z,19.97
2018-07-11T08:02:45.499Z,20.02
2018-07-11T08:05:13.819Z,19.98
2018-07-11T08:07:42.191Z,19.98
2018-07-11T08:10:10.544Z,20.07
2018-07-11T08:12:39.193Z,20.36
2018-07-11T08:15:08.258Z,20.60
2018-07-11T08:17:36.939Z,20.91
2018-07-11T08:20:05.415Z,21.06
2018-07-11T08:23:44.995Z,21.22
2018-07-11T08:26:25.307Z,21.37
2018-07-11T08:29:33.687Z,21.29
2018-07-11T08:32:28.097Z,21.02
2018-07-11T08:36:09.757Z,21.03
2018-07-11T08:38:51.994Z,21.06
2018-07-11T08:42:02.647Z,21.12
2018-07-11T08:44:43.849Z,21.25
2018-07-11T08:47:37.688Z,21.26
2018-07-11T08:50:16.078Z,21.30
2018-07-11T08:55:01.888Z,21.31
2018-07-11T08:57:40.116Z,21.38
2018-07-11T09:00:19.957Z,21.40
2018-07-11T09:05:08.372Z,21.22
2018-07-11T09:07:46.937Z,21.26
2018-07-11T09:13:04.832Z,21.28
2018-07-11T09:15:41.129Z,21.64
2018-07-11T09:20:21.969Z,21.66
2018-07-11T09:25:04.739Z,21.73
2018-07-11T09:27:33.253Z,21.77
2018-07-11T09:30:01.743Z,21.73
2018-07-11T09:32:30.143Z,21.87
2018-07-11T09:34:58.451Z,22.07
2018-07-11T09:37:26.827Z,22.12
2018-07-11T09:39:55.171Z,22.17
2018-07-11T09:42:23.532Z,22.12
2018-07-11T09:44:51.857Z,22.21
2018-07-11T09:47:25.425Z,22.37
2018-07-11T09:49:53.793Z,22.43
2018-07-11T09:52:22.316Z,22.21
2018-07-11T09:54:50.742Z,22.09
2018-07-11T09:57:19.458Z,22.13
2018-07-11T09:59:47.807Z,22.15
2018-07-11T10:02:16.186Z,22.15
2018-07-11T10:04:44.557Z,22.08
2018-07-11T10:07:13.486Z,21.86
2018-07-11T10:09:42.048Z,21.75
2018-07-11T10:12:10.413Z,21.63
2018-07-11T10:14:38.752Z,21.50
2018-07-11T10:17:07.113Z,21.39
2018-07-11T10:19:35.484Z,21.40
2018-07-11T10:22:03.805Z,21.48
2018-07-11T10:24:32.182Z,21.60
2018-07-11T10:27:00.659Z,21.68
2018-07-11T10:29:29.188Z,21.76
2018-07-11T10:31:57.542Z,21.81
2018-07-11T10:34:25.887Z,21.75
2018-07-11T10:36:54.195Z,21.53
2018-07-11T10:39:22.593Z,21.36
2018-07-11T10:41:51.010Z,21.21
2018-07-11T10:44:19.325Z,21.14
2018-07-11T10:47:18.550Z,21.06
2018-07-11T10:49:46.914Z,21.13
2018-07-11T10:52:15.431Z,21.17
2018-07-11T10:54:43.824Z,21.25
2018-07-11T10:57:12.179Z,21.42
2018-07-11T10:59:40.564Z,21.65
2018-07-11T11:02:09.023Z,21.63
2018-07-11T11:04:37.384Z,21.57
2018-07-11T11:07:05.767Z,21.64
2018-07-11T11:09:34.139Z,21.65
2018-07-11T11:12:02.574Z,21.57
2018-07-11T11:14:30.931Z,21.51
2018-07-11T11:16:59.756Z,21.43
2018-07-11T11:19:28.170Z,21.40
2018-07-11T11:21:56.574Z,21.40
2018-07-11T11:24:24.968Z,21.48
2018-07-11T11:26:53.323Z,21.49
2018-07-11T11:29:21.705Z,21.42
2018-07-11T11:31:50.115Z,21.36
2018-07-11T11:34:18.490Z,21.32
2018-07-11T11:36:46.840Z,21.32
2018-07-11T11:39:15.254Z,21.25
2018-07-11T11:41:43.748Z,21.12
2018-07-11T11:44:11.984Z,21.01
2018-07-11T11:46:40.397Z,20.88
2018-07-11T11:49:09.043Z,20.70
2018-07-11T11:51:37.398Z,20.66
2018-07-11T11:54:05.740Z,20.61
2018-07-11T11:56:34.170Z,20.59
2018-07-11T11:59:02.543Z,20.55
2018-07-11T12:01:30.939Z,20.49
2018-07-11T12:03:59.303Z,20.44
2018-07-11T12:06:27.746Z,20.39
2018-07-11T12:08:56.132Z,20.32
2018-07-11T12:11:24.558Z,20.23
2018-07-11T12:13:52.938Z,20.19
2018-07-11T12:16:21.310Z,20.18
2018-07-11T12:18:49.686Z,20.11
2018-07-11T12:21:18.095Z,19.92
2018-07-11T12:23:46.723Z,19.51
2018-07-11T12:26:16.239Z,19.02
2018-07-11T12:28:44.634Z,18.60
2018-07-11T12:31:13.017Z,18.31
2018-07-11T12:33:41.395Z,18.14
2018-07-11T12:36:09.785Z,18.02
2018-07-11T12:38:38.272Z,18.00
2018-07-11T12:41:06.849Z,17.99
2018-07-11T12:43:35.276Z,18.01
2018-07-11T12:46:03.616Z,18.03
2018-07-11T12:48:37.272Z,18.12
2018-07-11T12:51:05.644Z,18.26
2018-07-11T12:53:34.032Z,18.36
2018-07-11T12:56:02.429Z,18.48
2018-07-11T12:58:30.929Z,18.53
2018-07-11T13:00:59.388Z,18.58
2018-07-11T13:03:27.939Z,18.64
2018-07-11T13:05:56.323Z,18.71
2018-07-11T13:08:24.759Z,18.74
2018-07-11T13:10:53.194Z,18.77
2018-07-11T13:13:21.674Z,18.77
2018-07-11T13:15:50.208Z,18.81
2018-07-11T13:18:18.674Z,18.81
2018-07-11T13:20:47.008Z,18.80
2018-07-11T13:23:15.357Z,18.77
2018-07-11T13:25:43.820Z,18.77
2018-07-11T13:28:12.168Z,18.76
2018-07-11T13:30:40.652Z,18.76
2018-07-11T13:33:08.979Z,18.76
2018-07-11T13:35:37.361Z,18.76
2018-07-11T13:38:05.799Z,18.79
2018-07-11T13:40:34.226Z,18.83
2018-07-11T13:43:02.596Z,18.80
2018-07-11T13:45:30.987Z,18.76
2018-07-11T13:48:01.280Z,18.72
2018-07-11T13:50:29.867Z,18.65
2018-07-11T13:52:58.834Z,18.58
2018-07-11T13:55:27.353Z,18.57
2018-07-11T13:57:57.149Z,18.51
2018-07-11T14:00:25.580Z,18.48
2018-07-11T14:02:54.069Z,18.45
2018-07-11T14:05:28.845Z,18.37
2018-07-11T14:07:57.224Z,18.30
2018-07-11T14:10:25.581Z,18.30
2018-07-11T14:12:53.975Z,18.26
2018-07-11T14:15:22.341Z,18.18
2018-07-11T14:17:50.717Z,18.20
2018-07-11T14:20:19.104Z,18.29
2018-07-11T14:22:48.283Z,18.38
2018-07-11T14:25:17.475Z,18.41
2018-07-11T14:27:49.142Z,18.38
2018-07-11T14:30:17.705Z,18.31
2018-07-11T14:32:50.668Z,18.28
2018-07-11T14:35:19.111Z,18.32
2018-07-11T14:37:48.792Z,18.36
2018-07-11T14:40:17.155Z,18.37
2018-07-11T14:42:45.976Z,18.41
2018-07-11T14:45:14.830Z,18.66
2018-07-11T14:47:48.379Z,18.89
2018-07-11T14:50:17.138Z,19.14
2018-07-11T14:52:46.245Z,19.26
2018-07-11T14:55:14.593Z,19.42
2018-07-11T14:57:42.976Z,19.52
2018-07-11T15:00:11.411Z,19.57
2018-07-11T15:02:39.872Z,19.55
2018-07-11T15:05:08.245Z,19.59
2018-07-11T15:07:36.661Z,19.69
2018-07-11T15:10:05.096Z,19.81
2018-07-11T15:12:33.529Z,19.94
2018-07-11T15:15:01.937Z,20.05
2018-07-11T15:17:36.921Z,20.06
2018-07-11T15:20:05.622Z,19.89
2018-07-11T15:22:34.036Z,19.91
2018-07-11T15:25:02.433Z,19.93
2018-07-11T15:27:31.037Z,19.93
2018-07-11T15:29:59.408Z,19.97
2018-07-11T15:32:27.926Z,20.03
2018-07-11T15:34:56.491Z,20.07
2018-07-11T15:37:25.509Z,20.00
2018-07-11T15:39:54.365Z,19.95
2018-07-11T15:42:22.924Z,19.89
2018-07-11T15:44:52.040Z,19.85
2018-07-11T15:47:22.281Z,19.76
2018-07-11T15:49:52.565Z,19.67
2018-07-11T15:52:22.564Z,19.67
2018-07-11T15:54:51.213Z,19.71
2018-07-11T15:57:25.809Z,19.76
2018-07-11T16:00:01.465Z,19.81
2018-07-11T16:02:30.704Z,19.89
2018-07-11T16:04:59.170Z,19.93
2018-07-11T16:07:29.415Z,19.98
2018-07-11T16:09:59.102Z,20.03
2018-07-11T16:12:27.497Z,20.07
2018-07-11T16:14:56.524Z,20.10
2018-07-11T16:17:24.879Z,20.12
2018-07-11T16:19:53.293Z,20.15
2018-07-11T16:22:22.091Z,20.17
2018-07-11T16:24:50.566Z,20.15
2018-07-11T16:27:19.532Z,20.16
2018-07-11T16:29:47.906Z,20.12
2018-07-11T16:32:16.248Z,20.05
2018-07-11T16:34:45.024Z,19.94
2018-07-11T16:37:13.380Z,19.85
2018-07-11T16:39:41.792Z,19.87
2018-07-11T16:42:10.121Z,19.90
2018-07-11T16:44:38.568Z,19.88
2018-07-11T16:47:07.829Z,19.83
2018-07-11T16:49:40.259Z,19.75
2018-07-11T16:52:08.631Z,19.69
2018-07-11T16:54:36.985Z,19.61
2018-07-11T16:57:06.446Z,19.51
2018-07-11T16:59:44.250Z,19.42
2018-07-11T17:02:16.716Z,19.32
2018-07-11T17:04:45.053Z,19.26
2018-07-11T17:07:16.487Z,19.23
2018-07-11T17:09:46.280Z,19.24
2018-07-11T17:12:15.177Z,19.32
2018-07-11T17:14:46.178Z,19.44
2018-07-11T17:17:16.780Z,19.51
2018-07-11T17:20:04.853Z,19.58
2018-07-11T17:22:40.868Z,19.62
2018-07-11T17:25:10.833Z,19.57
2018-07-11T17:27:39.697Z,19.55
2018-07-11T17:30:08.034Z,19.57
2018-07-11T17:32:36.424Z,19.56
2018-07-11T17:35:04.798Z,19.62
2018-07-11T17:37:35.573Z,19.66
2018-07-11T17:40:10.829Z,19.66
2018-07-11T17:42:42.602Z,19.56
2018-07-11T17:45:13.780Z,19.50
2018-07-11T17:49:52.289Z,19.47
2018-07-11T17:52:20.640Z,19.45
2018-07-11T17:55:11.037Z,19.44
2018-07-11T17:57:49.192Z,19.46
2018-07-11T18:00:36.592Z,19.46
2018-07-11T18:03:10.714Z,19.44
2018-07-11T18:05:50.493Z,19.41
2018-07-11T18:08:18.892Z,19.31
2018-07-11T18:10:49.229Z,19.24
2018-07-11T18:13:26.355Z,19.15
2018-07-11T18:16:59.814Z,19.01
2018-07-11T18:20:38.340Z,18.67
2018-07-11T18:24:17.493Z,18.40
2018-07-11T18:27:14.628Z,18.14
2018-07-11T18:31:26.386Z,18.00
2018-07-11T18:34:06.109Z,17.85
2018-07-11T18:36:45.424Z,17.86
2018-07-11T18:39:37.170Z,17.86
2018-07-11T18:42:45.949Z,17.82
2018-07-11T18:47:33.481Z,17.81
2018-07-11T18:50:14.969Z,17.87
2018-07-11T18:52:51.773Z,17.89
2018-07-11T18:55:28.163Z,17.86
2018-07-11T18:58:08.458Z,17.83
2018-07-11T19:00:54.906Z,17.83
2018-07-11T19:03:31.134Z,17.83
2018-07-11T19:06:09.648Z,17.83
2018-07-11T19:08:56.277Z,17.80
2018-07-11T19:11:28.680Z,17.80
2018-07-11T19:14:06.366Z,17.82
2018-07-11T19:19:21.065Z,17.81
2018-07-11T19:21:56.967Z,17.76
2018-07-11T19:24:39.009Z,17.77
2018-07-11T19:27:16.524Z,17.75
2018-07-11T19:29:58.277Z,17.71
2018-07-11T19:33:45.627Z,17.68
2018-07-11T19:37:24.815Z,17.71
2018-07-11T19:41:01.133Z,17.71
2018-07-11T19:43:42.964Z,17.72
2018-07-11T19:48:38.865Z,17.70
2018-07-11T19:51:15.372Z,17.69
2018-07-11T19:56:00.045Z,17.68
2018-07-11T19:58:28.583Z,17.74
2018-07-11T20:00:57.033Z,17.74
2018-07-11T20:03:25.400Z,17.74
2018-07-11T20:05:53.780Z,17.76
2018-07-11T20:08:22.165Z,17.75
2018-07-11T20:10:50.558Z,17.76
2018-07-11T20:13:18.907Z,17.77
2018-07-11T20:15:47.267Z,17.75
2018-07-11T20:18:15.811Z,17.75
2018-07-11T20:20:44.312Z,17.75
2018-07-11T20:23:12.837Z,17.74
2018-07-11T20:25:41.249Z,17.75
2018-07-11T20:28:09.644Z,17.76
2018-07-11T20:30:38.088Z,17.76
2018-07-11T20:33:06.529Z,17.76
2018-07-11T20:35:34.905Z,17.74
2018-07-11T20:38:03.329Z,17.74
2018-07-11T20:40:31.698Z,17.73
2018-07-11T20:43:00.070Z,17.73
2018-07-11T20:45:28.483Z,17.74
2018-07-11T20:47:56.949Z,17.74
2018-07-11T20:50:25.697Z,17.74
2018-07-11T20:52:54.085Z,17.75
2018-07-11T20:55:22.747Z,17.75
2018-07-11T20:57:56.883Z,17.70
2018-07-11T21:00:36.716Z,17.70
2018-07-11T21:03:14.085Z,17.70
2018-07-11T21:06:58.150Z,17.70
2018-07-11T21:09:53.946Z,17.67
2018-07-11T21:15:47.290Z,17.63
2018-07-11T21:18:25.440Z,17.60
2018-07-11T21:20:53.823Z,17.56
2018-07-11T21:23:22.223Z,17.56
2018-07-11T21:25:50.625Z,17.56
2018-07-11T21:28:19.128Z,17.56
2018-07-11T21:30:47.536Z,17.54
2018-07-11T21:33:15.932Z,17.52
2018-07-11T21:35:44.349Z,17.52
2018-07-11T21:38:12.789Z,17.52
2018-07-11T21:40:41.218Z,17.50
2018-07-11T21:43:09.557Z,17.50
2018-07-11T21:45:37.932Z,17.50
2018-07-11T21:48:06.263Z,17.47
2018-07-11T21:50:34.648Z,17.46
2018-07-11T21:53:03.040Z,17.47
2018-07-11T21:55:31.432Z,17.49
2018-07-11T21:57:59.827Z,17.49
2018-07-11T22:00:36.068Z,17.45
2018-07-11T22:03:04.846Z,17.45
2018-07-11T22:05:34.268Z,17.45
2018-07-11T22:08:03.018Z,17.44
2018-07-11T22:10:31.536Z,17.45
2018-07-11T22:12:59.882Z,17.45
2018-07-11T22:15:28.243Z,17.45
2018-07-11T22:18:07.957Z,17.44
2018-07-11T22:20:35.210Z,17.44
2018-07-11T22:23:03.430Z,17.45
2018-07-11T22:25:30.811Z,17.43
2018-07-11T22:27:58.039Z,17.43
2018-07-11T22:30:26.232Z,17.45
2018-07-11T22:32:53.476Z,17.45
2018-07-11T22:35:20.703Z,17.44
2018-07-11T22:37:48.100Z,17.45
2018-07-11T22:40:15.305Z,17.44
2018-07-11T22:42:42.606Z,17.43
2018-07-11T22:45:09.780Z,17.40
2018-07-11T22:47:37.013Z,17.38
2018-07-11T22:50:04.537Z,17.39
2018-07-11T22:52:32.674Z,17.36
2018-07-11T22:54:59.874Z,17.34
2018-07-11T22:57:27.091Z,17.30
2018-07-11T22:59:54.315Z,17.27
2018-07-11T23:02:21.547Z,17.22
2018-07-11T23:04:48.747Z,17.20
2018-07-11T23:07:15.969Z,17.16
2018-07-11T23:09:43.163Z,17.15
2018-07-11T23:12:10.351Z,17.17
2018-07-11T23:14:37.560Z,17.18
2018-07-11T23:17:04.775Z,17.20
2018-07-11T23:19:31.993Z,17.22
2018-07-11T23:21:59.456Z,17.24
2018-07-11T23:24:26.801Z,17.23
2018-07-11T23:26:54.280Z,17.23
2018-07-11T23:29:21.717Z,17.25
2018-07-11T23:31:48.911Z,17.23
2018-07-11T23:34:16.172Z,17.22
2018-07-11T23:36:43.423Z,17.22
2018-07-11T23:39:11.536Z,17.21
2018-07-11T23:41:38.750Z,17.20
2018-07-11T23:44:06.184Z,17.18
2018-07-11T23:46:33.406Z,17.18
2018-07-11T23:49:00.645Z,17.18
2018-07-11T23:51:27.875Z,17.18
2018-07-11T23:53:55.103Z,17.18
2018-07-11T23:56:22.318Z,17.16
2018-07-11T23:58:49.516Z,17.14
